createdAt,value
2023-05-21T00:02:25.101Z,57.24
2023-05-21T00:04:53.306Z,58.16
2023-05-21T00:07:21.796Z,58.87
2023-05-21T00:09:50.064Z,59.46
2023-05-21T00:12:18.238Z,60.27
2023-05-21T00:14:46.415Z,60.97
2023-05-21T00:17:14.430Z,60.88
2023-05-21T00:19:42.411Z,61.28
2023-05-21T00:22:10.829Z,61.88
2023-05-21T00:24:39.038Z,62.27
2023-05-21T00:27:07.280Z,62.51
2023-05-21T00:29:35.588Z,63.02
2023-05-21T00:32:05.056Z,63.27
2023-05-21T00:34:33.334Z,63.61
2023-05-21T00:37:03.247Z,63.96
2023-05-21T00:39:31.255Z,64.44
2023-05-21T00:42:00.630Z,64.87
2023-05-21T00:44:34.231Z,65.18
2023-05-21T00:47:03.611Z,65.10
2023-05-21T00:49:32.154Z,65.34
2023-05-21T00:52:01.925Z,65.43
2023-05-21T00:54:30.865Z,65.99
2023-05-21T00:56:59.187Z,66.38
2023-05-21T00:59:27.886Z,66.58
2023-05-21T01:01:57.249Z,67.23
2023-05-21T01:04:25.650Z,67.43
2023-05-21T01:06:53.725Z,67.65
2023-05-21T01:09:22.411Z,68.38
2023-05-21T01:11:51.993Z,68.40
2023-05-21T01:14:21.353Z,68.25
2023-05-21T01:16:50.535Z,68.48
2023-05-21T01:19:21.007Z,68.67
2023-05-21T01:21:56.395Z,68.75
2023-05-21T01:24:24.431Z,69.21
2023-05-21T01:26:53.457Z,69.28
2023-05-21T01:29:21.872Z,69.18
2023-05-21T01:32:16.538Z,68.89
2023-05-21T01:35:07.329Z,69.02
2023-05-21T01:37:41.958Z,69.28
2023-05-21T01:40:22.857Z,68.99
2023-05-21T01:42:52.131Z,69.04
2023-05-21T01:45:22.720Z,69.29
2023-05-21T01:47:54.153Z,69.51
2023-05-21T01:50:24.806Z,69.31
2023-05-21T01:52:57.066Z,69.30
2023-05-21T01:55:25.601Z,69.33
2023-05-21T01:57:55.877Z,69.19
2023-05-21T02:00:28.358Z,69.63
2023-05-21T02:02:56.658Z,69.46
2023-05-21T02:05:24.874Z,69.61
2023-05-21T02:07:53.476Z,69.65
2023-05-21T02:10:21.523Z,70.11
2023-05-21T02:12:49.652Z,70.28
2023-05-21T02:15:20.598Z,70.14
2023-05-21T02:17:51.508Z,70.17
2023-05-21T02:20:20.245Z,70.28
2023-05-21T02:22:49.154Z,70.12
2023-05-21T02:25:19.792Z,70.09
2023-05-21T02:27:53.721Z,70.57
2023-05-21T02:30:21.937Z,70.78
2023-05-21T02:32:50.886Z,70.81
2023-05-21T02:35:18.956Z,71.13
2023-05-21T02:37:47.291Z,71.01
2023-05-21T02:40:16.806Z,70.92
2023-05-21T02:42:44.960Z,71.21
2023-05-21T02:45:15.100Z,71.11
2023-05-21T02:47:44.050Z,71.30
2023-05-21T02:50:14.532Z,71.51
2023-05-21T02:52:50.157Z,72.10
2023-05-21T02:55:18.340Z,72.04
2023-05-21T02:57:46.819Z,71.91
2023-05-21T03:00:16.171Z,72.08
2023-05-21T03:02:44.578Z,72.09
2023-05-21T03:05:13.083Z,72.21
2023-05-21T03:07:42.171Z,72.48
2023-05-21T03:10:11.167Z,72.69
2023-05-21T03:12:39.544Z,72.89
2023-05-21T03:15:08.217Z,73.05
2023-05-21T03:17:36.550Z,72.96
2023-05-21T03:20:05.836Z,72.98
2023-05-21T03:22:34.292Z,73.18
2023-05-21T03:25:02.701Z,73.01
2023-05-21T03:27:30.720Z,73.47
2023-05-21T03:29:59.155Z,73.58
2023-05-21T03:32:28.509Z,73.36
2023-05-21T03:34:56.720Z,73.27
2023-05-21T03:37:25.695Z,73.59
2023-05-21T03:39:54.272Z,73.60
2023-05-21T03:42:22.506Z,73.77
2023-05-21T03:44:53.643Z,73.91
2023-05-21T03:47:44.385Z,74.04
2023-05-21T03:50:12.710Z,74.44
2023-05-21T03:52:41.021Z,74.55
2023-05-21T03:55:09.625Z,74.42
2023-05-21T03:57:37.738Z,74.32
2023-05-21T04:00:09.018Z,74.73
2023-05-21T04:02:44.103Z,74.67
2023-05-21T04:05:13.902Z,74.81
2023-05-21T04:07:42.421Z,74.75
2023-05-21T04:10:11.084Z,74.77
2023-05-21T04:12:39.362Z,75.05
2023-05-21T04:15:08.370Z,75.08
2023-05-21T04:17:36.831Z,75.12
2023-05-21T04:20:05.554Z,75.06
2023-05-21T04:22:33.891Z,75.02
2023-05-21T04:25:02.491Z,74.88
2023-05-21T04:27:36.955Z,74.86
2023-05-21T04:30:05.850Z,75.30
2023-05-21T04:32:35.941Z,75.60
2023-05-21T04:35:04.623Z,75.65
2023-05-21T04:37:35.273Z,75.51
2023-05-21T04:40:04.464Z,75.44
2023-05-21T04:42:33.279Z,75.20
2023-05-21T04:45:02.304Z,75.33
2023-05-21T04:47:36.055Z,75.39
2023-05-21T04:50:05.818Z,75.50
2023-05-21T04:52:35.043Z,75.58
2023-05-21T04:55:04.150Z,75.71
2023-05-21T04:57:32.161Z,75.69
2023-05-21T05:00:02.195Z,75.65
2023-05-21T05:02:31.992Z,75.33
2023-05-21T05:05:01.304Z,75.74
2023-05-21T05:07:29.539Z,75.41
2023-05-21T05:09:57.765Z,75.49
2023-05-21T05:12:25.937Z,75.37
2023-05-21T05:14:53.929Z,75.83
2023-05-21T05:17:22.341Z,75.91
2023-05-21T05:19:50.826Z,75.46
2023-05-21T05:22:19.248Z,74.48
2023-05-21T05:24:47.726Z,73.62
2023-05-21T05:27:15.941Z,72.66
2023-05-21T05:29:45.616Z,71.44
2023-05-21T05:32:13.689Z,70.29
2023-05-21T05:34:43.450Z,68.96
2023-05-21T05:37:11.482Z,67.83
2023-05-21T05:39:39.717Z,66.85
2023-05-21T05:42:07.800Z,66.13
2023-05-21T05:44:36.040Z,65.45
2023-05-21T05:47:09.285Z,64.60
2023-05-21T05:49:37.763Z,64.05
2023-05-21T05:52:06.956Z,63.21
2023-05-21T05:54:34.938Z,62.63
2023-05-21T05:57:03.002Z,62.28
2023-05-21T05:59:34.035Z,62.45
2023-05-21T06:02:02.565Z,62.25
2023-05-21T06:04:30.716Z,61.93
2023-05-21T06:06:59.997Z,61.29
2023-05-21T06:09:28.373Z,61.20
2023-05-21T06:11:56.556Z,60.90
2023-05-21T06:14:24.932Z,60.63
2023-05-21T06:16:52.944Z,60.37
2023-05-21T06:19:21.841Z,60.54
2023-05-21T06:21:50.674Z,60.66
2023-05-21T06:24:18.951Z,60.88
2023-05-21T06:26:47.039Z,60.49
2023-05-21T06:29:17.183Z,61.38
2023-05-21T06:31:47.693Z,61.81
2023-05-21T06:34:16.056Z,62.49
2023-05-21T06:36:44.030Z,63.04
2023-05-21T06:39:12.816Z,63.79
2023-05-21T06:41:40.988Z,64.34
2023-05-21T06:44:25.153Z,64.83
2023-05-21T06:47:03.829Z,65.36
2023-05-21T06:49:32.852Z,66.02
2023-05-21T06:52:01.840Z,66.33
2023-05-21T06:54:30.113Z,66.71
2023-05-21T06:56:58.703Z,67.06
2023-05-21T06:59:26.801Z,67.20
2023-05-21T07:01:55.451Z,67.22
2023-05-21T07:04:24.452Z,67.18
2023-05-21T07:06:52.756Z,67.24
2023-05-21T07:09:20.955Z,67.26
2023-05-21T07:11:49.485Z,67.38
2023-05-21T07:14:18.458Z,67.38
2023-05-21T07:16:46.870Z,66.70
2023-05-21T07:19:15.795Z,66.76
2023-05-21T07:21:44.743Z,66.38
2023-05-21T07:24:13.118Z,65.94
2023-05-21T07:26:42.485Z,66.29
2023-05-21T07:29:12.065Z,66.70
2023-05-21T07:31:40.879Z,66.87
2023-05-21T07:34:09.190Z,67.03
2023-05-21T07:36:37.582Z,66.85
2023-05-21T07:39:05.837Z,66.87
2023-05-21T07:41:33.985Z,66.82
2023-05-21T07:44:04.141Z,66.65
2023-05-21T07:46:33.186Z,66.43
2023-05-21T07:49:01.431Z,66.32
2023-05-21T07:51:29.790Z,66.10
2023-05-21T07:53:58.382Z,66.90
2023-05-21T07:56:32.492Z,66.88
2023-05-21T07:59:01.486Z,67.01
2023-05-21T08:01:30.073Z,66.92
2023-05-21T08:04:06.224Z,66.80
2023-05-21T08:06:40.244Z,66.56
2023-05-21T08:09:08.526Z,66.56
2023-05-21T08:11:37.104Z,66.70
2023-05-21T08:14:05.504Z,66.52
2023-05-21T08:16:33.584Z,66.04
2023-05-21T08:19:01.829Z,66.65
2023-05-21T08:21:29.954Z,66.45
2023-05-21T08:24:00.379Z,66.56
2023-05-21T08:26:29.112Z,66.62
2023-05-21T08:28:57.932Z,66.26
2023-05-21T08:31:26.405Z,65.60
2023-05-21T08:33:56.818Z,64.79
2023-05-21T08:36:36.172Z,65.05
2023-05-21T08:39:16.816Z,65.49
2023-05-21T08:41:49.724Z,66.16
2023-05-21T08:44:22.082Z,66.61
2023-05-21T08:46:51.017Z,66.55
2023-05-21T08:49:27.422Z,66.33
2023-05-21T08:51:57.951Z,66.43
2023-05-21T08:54:26.167Z,66.33
2023-05-21T08:56:56.762Z,66.54
2023-05-21T08:59:25.980Z,66.70
2023-05-21T09:01:57.639Z,66.62
2023-05-21T09:04:32.322Z,66.34
2023-05-21T09:07:02.961Z,66.82
2023-05-21T09:09:55.434Z,66.63
2023-05-21T09:12:25.568Z,65.87
2023-05-21T09:14:54.642Z,65.15
2023-05-21T09:17:28.477Z,65.40
2023-05-21T09:20:13.591Z,65.29
2023-05-21T09:22:44.957Z,64.86
2023-05-21T09:25:31.494Z,65.38
2023-05-21T09:28:03.738Z,65.53
2023-05-21T09:30:35.028Z,65.53
2023-05-21T09:33:04.717Z,65.17
2023-05-21T09:35:34.267Z,64.88
2023-05-21T09:38:08.872Z,64.90
2023-05-21T09:40:37.247Z,64.93
2023-05-21T09:43:06.141Z,65.16
2023-05-21T09:45:35.139Z,65.09
2023-05-21T09:48:04.024Z,64.52
2023-05-21T09:50:36.527Z,64.51
2023-05-21T09:53:14.297Z,64.38
2023-05-21T09:55:42.521Z,64.59
2023-05-21T09:58:10.847Z,64.34
2023-05-21T10:00:40.618Z,64.44
2023-05-21T10:03:13.965Z,63.41
2023-05-21T10:05:42.692Z,63.24
2023-05-21T10:08:13.177Z,63.45
2023-05-21T10:10:43.324Z,63.28
2023-05-21T10:13:15.009Z,62.68
2023-05-21T10:15:46.521Z,62.45
2023-05-21T10:18:16.974Z,62.62
2023-05-21T10:20:46.035Z,62.50
2023-05-21T10:23:14.344Z,62.24
2023-05-21T10:25:42.793Z,62.08
2023-05-21T10:28:11.873Z,61.84
2023-05-21T10:30:40.304Z,61.55
2023-05-21T10:33:09.507Z,60.79
2023-05-21T10:35:40.460Z,60.34
2023-05-21T10:38:09.376Z,60.57
2023-05-21T10:40:37.913Z,60.53
2023-05-21T10:43:31.689Z,60.65
2023-05-21T10:46:09.823Z,60.43
2023-05-21T10:48:56.593Z,61.09
2023-05-21T10:51:57.033Z,60.83
2023-05-21T10:54:52.924Z,61.05
2023-05-21T10:57:44.807Z,61.06
2023-05-21T11:00:16.393Z,60.57
2023-05-21T11:02:46.300Z,60.70
2023-05-21T11:05:14.858Z,60.79
2023-05-21T11:07:56.875Z,61.02
2023-05-21T11:10:41.594Z,60.81
2023-05-21T11:13:16.820Z,61.02
2023-05-21T11:16:05.294Z,61.06
2023-05-21T11:18:38.084Z,60.44
2023-05-21T11:21:13.152Z,58.97
2023-05-21T11:24:02.745Z,58.41
2023-05-21T11:26:52.272Z,58.32
2023-05-21T11:29:20.569Z,57.28
2023-05-21T11:32:01.492Z,57.17
2023-05-21T11:34:41.921Z,56.17
2023-05-21T11:37:20.788Z,56.05
2023-05-21T11:39:50.663Z,55.07
2023-05-21T11:42:55.346Z,55.31
2023-05-21T11:45:28.392Z,55.17
2023-05-21T11:47:56.812Z,54.82
2023-05-21T11:50:25.863Z,54.72
2023-05-21T11:52:54.388Z,54.83
2023-05-21T11:55:25.231Z,54.56
2023-05-21T11:57:55.600Z,54.67
2023-05-21T12:00:24.747Z,54.55
2023-05-21T12:02:53.985Z,54.76
2023-05-21T12:05:23.654Z,55.77
2023-05-21T12:07:51.865Z,56.63
2023-05-21T12:10:24.260Z,56.15
2023-05-21T12:12:56.527Z,55.80
2023-05-21T12:15:26.709Z,55.50
2023-05-21T12:17:56.069Z,54.95
2023-05-21T12:20:27.260Z,55.90
2023-05-21T12:22:57.188Z,55.33
2023-05-21T12:25:25.756Z,55.54
2023-05-21T12:27:58.617Z,55.86
2023-05-21T12:30:28.992Z,55.92
2023-05-21T12:32:59.171Z,55.64
2023-05-21T12:35:27.814Z,55.59
2023-05-21T12:37:56.953Z,56.10
2023-05-21T12:40:40.060Z,55.18
2023-05-21T12:43:08.683Z,54.95
2023-05-21T12:45:39.632Z,55.36
2023-05-21T12:48:07.908Z,55.76
2023-05-21T12:50:40.739Z,55.50
2023-05-21T12:53:11.337Z,55.30
2023-05-21T12:55:40.753Z,55.10
2023-05-21T12:58:13.982Z,55.16
2023-05-21T13:00:43.849Z,55.30
2023-05-21T13:03:12.585Z,55.34
2023-05-21T13:05:41.918Z,55.26
2023-05-21T13:08:10.895Z,55.01
2023-05-21T13:10:39.290Z,54.32
2023-05-21T13:13:07.745Z,54.93
2023-05-21T13:15:35.921Z,55.60
2023-05-21T13:18:04.335Z,54.76
2023-05-21T13:20:32.583Z,55.37
2023-05-21T13:23:02.938Z,54.89
2023-05-21T13:25:33.043Z,54.66
2023-05-21T13:28:05.803Z,54.11
2023-05-21T13:30:34.087Z,54.92
2023-05-21T13:33:03.233Z,54.94
2023-05-21T13:35:32.323Z,54.93
2023-05-21T13:38:00.927Z,54.85
2023-05-21T13:40:29.248Z,55.21
2023-05-21T13:42:57.350Z,55.27
2023-05-21T13:45:29.474Z,55.18
2023-05-21T13:47:58.465Z,55.46
2023-05-21T13:50:26.867Z,55.69
2023-05-21T13:52:54.973Z,55.40
2023-05-21T13:55:23.699Z,55.30
2023-05-21T13:57:51.987Z,55.47
2023-05-21T14:00:20.153Z,55.63
2023-05-21T14:02:48.757Z,55.02
2023-05-21T14:05:17.213Z,54.12
2023-05-21T14:07:47.644Z,54.02
2023-05-21T14:10:16.022Z,54.19
2023-05-21T14:12:46.255Z,53.53
2023-05-21T14:15:14.341Z,52.43
2023-05-21T14:17:42.617Z,52.51
2023-05-21T14:20:11.630Z,52.43
2023-05-21T14:22:39.747Z,52.15
2023-05-21T14:25:08.550Z,51.79
2023-05-21T14:27:38.101Z,51.80
2023-05-21T14:30:07.117Z,51.54
2023-05-21T14:32:35.324Z,52.11
2023-05-21T14:35:04.111Z,52.24
2023-05-21T14:37:32.231Z,51.77
2023-05-21T14:40:00.289Z,52.12
2023-05-21T14:42:28.283Z,51.89
2023-05-21T14:44:56.549Z,51.14
2023-05-21T14:47:24.651Z,50.55
2023-05-21T14:49:52.848Z,51.10
2023-05-21T14:52:21.023Z,51.04
2023-05-21T14:54:49.085Z,50.54
2023-05-21T14:57:17.192Z,50.98
2023-05-21T14:59:45.338Z,51.93
2023-05-21T15:02:13.520Z,52.18
2023-05-21T15:04:41.999Z,51.33
2023-05-21T15:07:10.165Z,51.69
2023-05-21T15:09:38.122Z,52.25
2023-05-21T15:12:06.285Z,52.57
2023-05-21T15:14:34.303Z,52.73
2023-05-21T15:17:02.549Z,52.63
2023-05-21T15:19:30.657Z,52.56
2023-05-21T15:21:58.995Z,52.50
2023-05-21T15:24:27.342Z,52.32
2023-05-21T15:26:55.670Z,52.04
2023-05-21T15:29:23.976Z,52.25
2023-05-21T15:31:52.029Z,52.34
2023-05-21T15:34:20.159Z,52.24
2023-05-21T15:36:48.250Z,52.30
2023-05-21T15:39:16.430Z,52.76
2023-05-21T15:41:44.468Z,52.29
2023-05-21T15:44:12.440Z,51.61
2023-05-21T15:46:41.003Z,51.88
2023-05-21T15:49:09.222Z,52.10
2023-05-21T15:51:38.674Z,52.33
2023-05-21T15:54:06.736Z,52.41
2023-05-21T15:56:35.094Z,52.64
2023-05-21T15:59:04.177Z,52.74
2023-05-21T16:01:32.596Z,53.03
2023-05-21T16:04:03.435Z,52.87
2023-05-21T16:06:31.971Z,52.72
2023-05-21T16:09:00.250Z,52.87
2023-05-21T16:11:28.977Z,53.35
2023-05-21T16:13:57.492Z,53.46
2023-05-21T16:16:25.757Z,53.46
2023-05-21T16:18:54.613Z,53.99
2023-05-21T16:21:23.681Z,53.90
2023-05-21T16:23:51.852Z,53.36
2023-05-21T16:26:19.924Z,54.16
2023-05-21T16:28:48.355Z,54.53
2023-05-21T16:31:16.688Z,54.33
2023-05-21T16:33:44.960Z,54.59
2023-05-21T16:36:13.234Z,54.70
2023-05-21T16:38:41.306Z,55.50
2023-05-21T16:41:09.402Z,55.60
2023-05-21T16:43:37.605Z,55.65
2023-05-21T16:46:05.773Z,56.38
2023-05-21T16:48:34.681Z,56.78
2023-05-21T16:51:04.630Z,57.17
2023-05-21T16:53:32.950Z,57.37
2023-05-21T16:56:01.035Z,55.99
2023-05-21T16:58:29.008Z,55.43
2023-05-21T17:00:57.263Z,54.87
2023-05-21T17:03:25.405Z,54.45
2023-05-21T17:05:53.687Z,53.72
2023-05-21T17:08:21.698Z,53.97
2023-05-21T17:10:49.856Z,53.88
2023-05-21T17:13:22.262Z,54.00
2023-05-21T17:15:51.617Z,53.98
2023-05-21T17:18:19.855Z,53.79
2023-05-21T17:20:48.022Z,53.76
2023-05-21T17:23:16.670Z,54.07
2023-05-21T17:25:44.890Z,54.28
2023-05-21T17:28:12.966Z,54.50
2023-05-21T17:30:41.251Z,55.15
2023-05-21T17:33:10.614Z,54.40
2023-05-21T17:35:39.410Z,54.64
2023-05-21T17:38:07.828Z,55.20
2023-05-21T17:40:35.980Z,55.37
2023-05-21T17:43:05.202Z,55.81
2023-05-21T17:45:33.684Z,56.29
2023-05-21T17:48:01.953Z,56.55
2023-05-21T17:50:30.303Z,56.97
2023-05-21T17:52:58.438Z,57.50
2023-05-21T17:55:26.688Z,57.78
2023-05-21T17:57:54.759Z,57.80
2023-05-21T18:00:22.813Z,57.81
2023-05-21T18:02:50.835Z,58.02
2023-05-21T18:05:19.911Z,58.09
2023-05-21T18:07:48.318Z,58.23
2023-05-21T18:10:16.761Z,58.14
2023-05-21T18:12:46.469Z,58.36
2023-05-21T18:15:15.534Z,58.78
2023-05-21T18:17:44.476Z,58.59
2023-05-21T18:20:13.793Z,58.96
2023-05-21T18:22:42.057Z,59.11
2023-05-21T18:25:10.405Z,59.15
2023-05-21T18:27:38.682Z,59.29
2023-05-21T18:30:08.660Z,59.37
2023-05-21T18:32:39.494Z,59.97
2023-05-21T18:35:10.947Z,60.04
2023-05-21T18:37:42.327Z,60.03
2023-05-21T18:40:12.140Z,60.03
2023-05-21T18:42:40.714Z,60.08
2023-05-21T18:45:10.302Z,60.37
2023-05-21T18:47:40.586Z,60.46
2023-05-21T18:50:14.273Z,60.45
2023-05-21T18:52:42.434Z,60.49
2023-05-21T18:55:10.438Z,60.57
2023-05-21T18:57:39.552Z,60.63
2023-05-21T19:00:09.840Z,60.94
2023-05-21T19:02:38.253Z,61.07
2023-05-21T19:05:10.128Z,61.21
2023-05-21T19:07:38.307Z,61.46
2023-05-21T19:10:07.389Z,61.68
2023-05-21T19:12:39.711Z,61.69
2023-05-21T19:15:08.405Z,61.81
2023-05-21T19:17:39.740Z,61.75
2023-05-21T19:20:09.573Z,61.74
2023-05-21T19:22:37.760Z,61.74
2023-05-21T19:25:06.721Z,61.77
2023-05-21T19:27:34.777Z,61.96
2023-05-21T19:30:02.900Z,62.34
2023-05-21T19:32:31.562Z,62.53
2023-05-21T19:35:00.233Z,62.79
2023-05-21T19:37:28.511Z,62.99
2023-05-21T19:39:56.686Z,63.18
2023-05-21T19:42:24.795Z,63.43
2023-05-21T19:44:52.848Z,63.49
2023-05-21T19:47:21.142Z,63.58
2023-05-21T19:49:49.257Z,63.73
2023-05-21T19:52:17.560Z,64.04
2023-05-21T19:54:45.589Z,64.10
2023-05-21T19:57:14.054Z,64.44
2023-05-21T19:59:42.398Z,64.58
2023-05-21T20:02:17.004Z,64.61
2023-05-21T20:04:45.605Z,64.86
2023-05-21T20:07:13.635Z,65.07
2023-05-21T20:09:42.154Z,65.09
2023-05-21T20:12:10.425Z,65.17
2023-05-21T20:14:38.596Z,65.34
2023-05-21T20:17:07.224Z,65.38
2023-05-21T20:19:36.325Z,65.68
2023-05-21T20:22:05.678Z,65.74
2023-05-21T20:24:33.916Z,66.05
2023-05-21T20:27:02.204Z,66.26
2023-05-21T20:29:30.612Z,66.71
2023-05-21T20:31:59.090Z,66.82
2023-05-21T20:34:27.675Z,66.85
2023-05-21T20:36:58.578Z,66.93
2023-05-21T20:39:30.058Z,67.03
2023-05-21T20:41:58.737Z,67.22
2023-05-21T20:44:27.742Z,67.55
2023-05-21T20:46:56.127Z,68.05
2023-05-21T20:49:25.073Z,67.57
2023-05-21T20:51:53.710Z,67.75
2023-05-21T20:54:22.397Z,67.71
2023-05-21T20:56:50.903Z,67.68
2023-05-21T20:59:19.144Z,67.97
2023-05-21T21:01:47.365Z,67.88
2023-05-21T21:04:16.239Z,67.99
2023-05-21T21:06:46.627Z,68.40
2023-05-21T21:09:15.122Z,68.50
2023-05-21T21:11:43.410Z,68.30
2023-05-21T21:14:11.665Z,68.11
2023-05-21T21:16:39.724Z,68.31
2023-05-21T21:19:07.903Z,68.49
2023-05-21T21:21:36.289Z,68.62
2023-05-21T21:24:04.730Z,68.71
2023-05-21T21:26:32.698Z,68.87
2023-05-21T21:29:00.855Z,69.34
2023-05-21T21:31:30.055Z,69.58
2023-05-21T21:33:58.474Z,69.54
2023-05-21T21:36:28.918Z,69.62
2023-05-21T21:38:57.724Z,70.02
2023-05-21T21:41:26.093Z,70.20
2023-05-21T21:43:54.205Z,69.95
2023-05-21T21:46:22.715Z,70.02
2023-05-21T21:48:51.139Z,70.55
2023-05-21T21:51:20.686Z,70.81
2023-05-21T21:53:49.773Z,70.88
2023-05-21T21:56:18.003Z,71.07
2023-05-21T21:58:46.422Z,71.02
2023-05-21T22:01:14.624Z,71.14
2023-05-21T22:03:42.782Z,71.36
2023-05-21T22:06:10.987Z,71.68
2023-05-21T22:08:39.106Z,71.63
2023-05-21T22:11:07.354Z,71.96
2023-05-21T22:13:35.448Z,72.47
2023-05-21T22:16:05.496Z,72.57
2023-05-21T22:18:41.497Z,72.69
2023-05-21T22:21:10.844Z,72.84
2023-05-21T22:23:39.145Z,73.09
2023-05-21T22:26:07.886Z,73.17
2023-05-21T22:28:36.359Z,73.51
2023-05-21T22:31:05.066Z,73.76
2023-05-21T22:33:33.079Z,73.99
2023-05-21T22:36:01.592Z,74.51
2023-05-21T22:38:29.681Z,74.37
2023-05-21T22:40:57.834Z,74.41
2023-05-21T22:43:27.057Z,74.68
2023-05-21T22:45:55.516Z,74.64
2023-05-21T22:48:23.548Z,74.82
2023-05-21T22:50:53.686Z,74.90
2023-05-21T22:53:22.085Z,75.17
2023-05-21T22:55:51.081Z,75.37
2023-05-21T22:58:19.496Z,75.13
2023-05-21T23:00:48.177Z,75.16
2023-05-21T23:03:17.038Z,75.30
2023-05-21T23:05:46.028Z,75.55
2023-05-21T23:08:14.491Z,75.51
2023-05-21T23:10:42.897Z,75.57
2023-05-21T23:13:12.928Z,75.82
2023-05-21T23:15:43.819Z,75.97
2023-05-21T23:18:12.683Z,76.01
2023-05-21T23:20:41.562Z,76.11
2023-05-21T23:23:11.167Z,76.33
2023-05-21T23:25:39.600Z,76.12
2023-05-21T23:28:07.888Z,76.51
2023-05-21T23:30:36.286Z,76.60
2023-05-21T23:33:04.557Z,76.70
2023-05-21T23:35:32.635Z,76.79
2023-05-21T23:38:00.887Z,76.85
2023-05-21T23:40:29.059Z,76.85
2023-05-21T23:42:57.352Z,76.88
2023-05-21T23:45:25.464Z,76.69
2023-05-21T23:47:53.812Z,76.55
2023-05-21T23:50:22.184Z,77.08
2023-05-21T23:52:50.687Z,76.80
2023-05-21T23:55:18.937Z,77.14
2023-05-21T23:57:46.898Z,77.19
